sensor_id;sensor_type;location;lat;lon;timestamp;temperature;humidity
25923;DHT22;13725;51.170;4.442;2023-03-16T00:02:13;7.30;99.90
25923;DHT22;13725;51.170;4.442;2023-03-16T00:04:39;7.40;99.90
25923;DHT22;13725;51.170;4.442;2023-03-16T00:07:10;7.40;99.90
25923;DHT22;13725;51.170;4.442;2023-03-16T00:09:37;7.30;99.90
25923;DHT22;13725;51.170;4.442;2023-03-16T00:12:16;7.40;99.90
25923;DHT22;13725;51.170;4.442;2023-03-16T00:14:44;7.30;99.90
25923;DHT22;13725;51.170;4.442;2023-03-16T00:17:15;7.30;99.90
25923;DHT22;13725;51.170;4.442;2023-03-16T00:19:45;7.30;99.90
25923;DHT22;13725;51.170;4.442;2023-03-16T00:22:14;7.40;99.90
25923;DHT22;13725;51.170;4.442;2023-03-16T00:24:41;7.30;99.90
25923;DHT22;13725;51.170;4.442;2023-03-16T00:27:14;7.40;99.90
25923;DHT22;13725;51.170;4.442;2023-03-16T00:29:44;7.40;99.90
25923;DHT22;13725;51.170;4.442;2023-03-16T00:32:23;7.40;99.90
25923;DHT22;13725;51.170;4.442;2023-03-16T00:34:49;7.40;99.90
25923;DHT22;13725;51.170;4.442;2023-03-16T00:37:17;7.40;99.90
25923;DHT22;13725;51.170;4.442;2023-03-16T00:39:45;7.30;99.90
25923;DHT22;13725;51.170;4.442;2023-03-16T00:42:13;7.20;99.90
25923;DHT22;13725;51.170;4.442;2023-03-16T00:44:39;7.20;99.90
25923;DHT22;13725;51.170;4.442;2023-03-16T00:47:07;7.10;99.90
25923;DHT22;13725;51.170;4.442;2023-03-16T00:49:34;7.10;99.90
25923;DHT22;13725;51.170;4.442;2023-03-16T00:52:01;7.00;99.90
25923;DHT22;13725;51.170;4.442;2023-03-16T00:54:28;7.00;99.90
25923;DHT22;13725;51.170;4.442;2023-03-16T00:56:54;7.00;99.90
25923;DHT22;13725;51.170;4.442;2023-03-16T00:59:20;7.00;99.90
25923;DHT22;13725;51.170;4.442;2023-03-16T01:01:46;7.10;99.90
25923;DHT22;13725;51.170;4.442;2023-03-16T01:04:13;7.10;99.90
25923;DHT22;13725;51.170;4.442;2023-03-16T01:06:39;7.20;99.90
25923;DHT22;13725;51.170;4.442;2023-03-16T01:09:06;7.20;99.90
25923;DHT22;13725;51.170;4.442;2023-03-16T01:11:32;7.30;99.90
25923;DHT22;13725;51.170;4.442;2023-03-16T01:13:58;7.30;99.90
25923;DHT22;13725;51.170;4.442;2023-03-16T01:16:24;7.30;99.90
25923;DHT22;13725;51.170;4.442;2023-03-16T01:18:52;7.30;99.90
25923;DHT22;13725;51.170;4.442;2023-03-16T01:21:18;7.40;99.90
25923;DHT22;13725;51.170;4.442;2023-03-16T01:23:44;7.40;99.90
25923;DHT22;13725;51.170;4.442;2023-03-16T01:26:11;7.30;99.90
25923;DHT22;13725;51.170;4.442;2023-03-16T01:28:37;7.30;99.90
25923;DHT22;13725;51.170;4.442;2023-03-16T01:31:08;7.40;99.90
25923;DHT22;13725;51.170;4.442;2023-03-16T01:33:34;7.40;99.90
25923;DHT22;13725;51.170;4.442;2023-03-16T01:36:10;7.50;99.90
25923;DHT22;13725;51.170;4.442;2023-03-16T01:38:43;7.50;99.90
25923;DHT22;13725;51.170;4.442;2023-03-16T01:41:09;7.50;99.90
25923;DHT22;13725;51.170;4.442;2023-03-16T01:43:37;7.40;99.90
25923;DHT22;13725;51.170;4.442;2023-03-16T01:51:15;7.40;99.90
25923;DHT22;13725;51.170;4.442;2023-03-16T01:53:44;7.40;99.90
25923;DHT22;13725;51.170;4.442;2023-03-16T01:56:14;7.40;99.90
25923;DHT22;13725;51.170;4.442;2023-03-16T01:58:43;7.40;99.90
25923;DHT22;13725;51.170;4.442;2023-03-16T02:01:11;7.40;99.90
25923;DHT22;13725;51.170;4.442;2023-03-16T02:03:38;7.40;99.90
25923;DHT22;13725;51.170;4.442;2023-03-16T02:06:18;7.50;99.90
25923;DHT22;13725;51.170;4.442;2023-03-16T02:08:49;7.50;99.90
25923;DHT22;13725;51.170;4.442;2023-03-16T02:11:15;7.50;99.90
25923;DHT22;13725;51.170;4.442;2023-03-16T02:14:07;7.50;99.90
25923;DHT22;13725;51.170;4.442;2023-03-16T02:16:33;7.60;99.90
25923;DHT22;13725;51.170;4.442;2023-03-16T02:18:59;7.60;99.90
25923;DHT22;13725;51.170;4.442;2023-03-16T02:21:38;7.60;99.90
25923;DHT22;13725;51.170;4.442;2023-03-16T02:24:06;7.60;99.90
25923;DHT22;13725;51.170;4.442;2023-03-16T02:26:46;7.60;99.90
25923;DHT22;13725;51.170;4.442;2023-03-16T02:31:56;7.50;99.90
25923;DHT22;13725;51.170;4.442;2023-03-16T02:34:22;7.40;99.90
25923;DHT22;13725;51.170;4.442;2023-03-16T02:36:50;7.40;99.90
25923;DHT22;13725;51.170;4.442;2023-03-16T02:39:21;7.40;99.90
25923;DHT22;13725;51.170;4.442;2023-03-16T02:41:48;7.50;99.90
25923;DHT22;13725;51.170;4.442;2023-03-16T02:44:15;7.40;99.90
25923;DHT22;13725;51.170;4.442;2023-03-16T02:46:45;7.40;99.90
25923;DHT22;13725;51.170;4.442;2023-03-16T02:49:25;7.40;99.90
25923;DHT22;13725;51.170;4.442;2023-03-16T02:51:51;7.40;99.90
25923;DHT22;13725;51.170;4.442;2023-03-16T02:54:18;7.30;99.90
25923;DHT22;13725;51.170;4.442;2023-03-16T02:56:43;7.20;99.90
25923;DHT22;13725;51.170;4.442;2023-03-16T02:59:10;7.20;99.90
25923;DHT22;13725;51.170;4.442;2023-03-16T03:01:37;7.10;99.90
25923;DHT22;13725;51.170;4.442;2023-03-16T03:04:03;7.00;99.90
25923;DHT22;13725;51.170;4.442;2023-03-16T03:06:31;6.90;99.90
25923;DHT22;13725;51.170;4.442;2023-03-16T03:08:58;6.90;99.90
25923;DHT22;13725;51.170;4.442;2023-03-16T03:11:24;6.90;99.90
25923;DHT22;13725;51.170;4.442;2023-03-16T03:13:50;6.80;99.90
25923;DHT22;13725;51.170;4.442;2023-03-16T03:16:20;6.80;99.90
25923;DHT22;13725;51.170;4.442;2023-03-16T03:18:47;6.60;99.90
25923;DHT22;13725;51.170;4.442;2023-03-16T03:21:13;6.60;99.90
25923;DHT22;13725;51.170;4.442;2023-03-16T03:23:39;6.50;99.90
25923;DHT22;13725;51.170;4.442;2023-03-16T03:26:06;6.50;99.90
25923;DHT22;13725;51.170;4.442;2023-03-16T03:28:32;6.50;99.90
25923;DHT22;13725;51.170;4.442;2023-03-16T03:30:59;6.50;99.90
25923;DHT22;13725;51.170;4.442;2023-03-16T03:33:26;6.40;99.90
25923;DHT22;13725;51.170;4.442;2023-03-16T03:35:54;6.40;99.90
25923;DHT22;13725;51.170;4.442;2023-03-16T03:38:20;6.40;99.90
25923;DHT22;13725;51.170;4.442;2023-03-16T03:40:49;6.40;99.90
25923;DHT22;13725;51.170;4.442;2023-03-16T03:43:16;6.40;99.90
25923;DHT22;13725;51.170;4.442;2023-03-16T03:45:44;6.40;99.90
25923;DHT22;13725;51.170;4.442;2023-03-16T03:48:10;6.40;99.90
25923;DHT22;13725;51.170;4.442;2023-03-16T03:50:35;6.30;99.90
25923;DHT22;13725;51.170;4.442;2023-03-16T03:53:25;6.30;99.90
25923;DHT22;13725;51.170;4.442;2023-03-16T03:56:12;6.20;99.90
25923;DHT22;13725;51.170;4.442;2023-03-16T03:58:38;6.30;99.90
25923;DHT22;13725;51.170;4.442;2023-03-16T04:01:04;6.30;99.90
25923;DHT22;13725;51.170;4.442;2023-03-16T04:03:31;6.30;99.90
25923;DHT22;13725;51.170;4.442;2023-03-16T04:05:57;6.30;99.90
25923;DHT22;13725;51.170;4.442;2023-03-16T04:08:23;6.30;99.90
25923;DHT22;13725;51.170;4.442;2023-03-16T04:10:49;6.30;99.90
25923;DHT22;13725;51.170;4.442;2023-03-16T04:13:16;6.30;99.90
25923;DHT22;13725;51.170;4.442;2023-03-16T04:15:41;6.30;99.90
25923;DHT22;13725;51.170;4.442;2023-03-16T04:18:24;6.30;99.90
25923;DHT22;13725;51.170;4.442;2023-03-16T04:20:50;6.30;99.90
25923;DHT22;13725;51.170;4.442;2023-03-16T04:23:20;6.30;99.90
25923;DHT22;13725;51.170;4.442;2023-03-16T04:25:48;6.30;99.90
25923;DHT22;13725;51.170;4.442;2023-03-16T04:28:16;6.30;99.90
25923;DHT22;13725;51.170;4.442;2023-03-16T04:30:42;6.30;99.90
25923;DHT22;13725;51.170;4.442;2023-03-16T04:33:22;6.40;99.90
25923;DHT22;13725;51.170;4.442;2023-03-16T04:35:48;6.40;99.90
25923;DHT22;13725;51.170;4.442;2023-03-16T04:38:15;6.30;99.90
25923;DHT22;13725;51.170;4.442;2023-03-16T04:40:50;6.40;99.90
25923;DHT22;13725;51.170;4.442;2023-03-16T04:43:20;6.30;99.90
25923;DHT22;13725;51.170;4.442;2023-03-16T04:45:47;6.20;99.90
25923;DHT22;13725;51.170;4.442;2023-03-16T04:48:13;6.20;99.90
25923;DHT22;13725;51.170;4.442;2023-03-16T04:50:39;6.20;99.90
25923;DHT22;13725;51.170;4.442;2023-03-16T04:53:05;6.20;99.90
25923;DHT22;13725;51.170;4.442;2023-03-16T04:55:31;6.10;99.90
25923;DHT22;13725;51.170;4.442;2023-03-16T04:57:57;6.10;99.90
25923;DHT22;13725;51.170;4.442;2023-03-16T05:00:24;6.20;99.90
25923;DHT22;13725;51.170;4.442;2023-03-16T05:03:00;6.20;99.90
25923;DHT22;13725;51.170;4.442;2023-03-16T05:05:27;6.10;99.90
25923;DHT22;13725;51.170;4.442;2023-03-16T05:07:53;6.10;99.90
25923;DHT22;13725;51.170;4.442;2023-03-16T05:10:19;6.10;99.90
25923;DHT22;13725;51.170;4.442;2023-03-16T05:12:45;6.00;99.90
25923;DHT22;13725;51.170;4.442;2023-03-16T05:15:12;6.10;99.90
25923;DHT22;13725;51.170;4.442;2023-03-16T05:17:44;6.10;99.90
25923;DHT22;13725;51.170;4.442;2023-03-16T05:20:13;6.10;99.90
25923;DHT22;13725;51.170;4.442;2023-03-16T05:22:44;6.10;99.90
25923;DHT22;13725;51.170;4.442;2023-03-16T05:25:19;6.10;99.90
25923;DHT22;13725;51.170;4.442;2023-03-16T05:27:50;6.10;99.90
25923;DHT22;13725;51.170;4.442;2023-03-16T05:30:23;6.10;99.90
25923;DHT22;13725;51.170;4.442;2023-03-16T05:32:51;6.10;99.90
25923;DHT22;13725;51.170;4.442;2023-03-16T05:35:17;6.10;99.90
25923;DHT22;13725;51.170;4.442;2023-03-16T05:37:44;6.10;99.90
25923;DHT22;13725;51.170;4.442;2023-03-16T05:40:15;6.00;99.90
25923;DHT22;13725;51.170;4.442;2023-03-16T05:42:56;6.10;99.90
25923;DHT22;13725;51.170;4.442;2023-03-16T05:45:23;6.10;99.90
25923;DHT22;13725;51.170;4.442;2023-03-16T05:48:02;6.00;99.90
25923;DHT22;13725;51.170;4.442;2023-03-16T05:50:32;6.00;99.90
25923;DHT22;13725;51.170;4.442;2023-03-16T05:52:58;6.00;99.90
25923;DHT22;13725;51.170;4.442;2023-03-16T05:55:24;6.00;99.90
25923;DHT22;13725;51.170;4.442;2023-03-16T05:57:55;6.10;99.90
25923;DHT22;13725;51.170;4.442;2023-03-16T06:00:21;6.00;99.90
25923;DHT22;13725;51.170;4.442;2023-03-16T06:02:56;6.10;99.90
25923;DHT22;13725;51.170;4.442;2023-03-16T06:05:27;6.00;99.90
25923;DHT22;13725;51.170;4.442;2023-03-16T06:07:54;6.10;99.90
25923;DHT22;13725;51.170;4.442;2023-03-16T06:10:20;6.20;99.90
25923;DHT22;13725;51.170;4.442;2023-03-16T06:12:45;6.20;99.90
25923;DHT22;13725;51.170;4.442;2023-03-16T06:15:12;6.30;99.90
25923;DHT22;13725;51.170;4.442;2023-03-16T06:17:38;6.30;99.90
25923;DHT22;13725;51.170;4.442;2023-03-16T06:20:07;6.30;99.90
25923;DHT22;13725;51.170;4.442;2023-03-16T06:22:42;6.30;99.90
25923;DHT22;13725;51.170;4.442;2023-03-16T06:25:09;6.30;99.90
25923;DHT22;13725;51.170;4.442;2023-03-16T06:27:37;6.30;99.90
25923;DHT22;13725;51.170;4.442;2023-03-16T06:30:10;6.40;99.90
25923;DHT22;13725;51.170;4.442;2023-03-16T06:32:37;6.40;99.90
25923;DHT22;13725;51.170;4.442;2023-03-16T06:35:04;6.40;99.90
25923;DHT22;13725;51.170;4.442;2023-03-16T06:37:30;6.40;99.90
25923;DHT22;13725;51.170;4.442;2023-03-16T06:39:59;6.40;99.90
25923;DHT22;13725;51.170;4.442;2023-03-16T06:42:25;6.50;99.90
25923;DHT22;13725;51.170;4.442;2023-03-16T06:44:52;6.60;99.90
25923;DHT22;13725;51.170;4.442;2023-03-16T06:47:18;6.70;99.90
25923;DHT22;13725;51.170;4.442;2023-03-16T06:49:44;6.70;99.90
25923;DHT22;13725;51.170;4.442;2023-03-16T06:52:16;6.90;99.90
25923;DHT22;13725;51.170;4.442;2023-03-16T06:54:41;6.90;99.90
25923;DHT22;13725;51.170;4.442;2023-03-16T06:57:07;6.90;99.90
25923;DHT22;13725;51.170;4.442;2023-03-16T06:59:33;7.00;99.90
25923;DHT22;13725;51.170;4.442;2023-03-16T07:01:59;7.00;99.90
25923;DHT22;13725;51.170;4.442;2023-03-16T07:04:26;7.10;99.90
25923;DHT22;13725;51.170;4.442;2023-03-16T07:06:52;7.10;99.90
25923;DHT22;13725;51.170;4.442;2023-03-16T07:09:17;7.20;99.90
25923;DHT22;13725;51.170;4.442;2023-03-16T07:11:43;7.20;99.90
25923;DHT22;13725;51.170;4.442;2023-03-16T07:14:09;7.30;99.90
25923;DHT22;13725;51.170;4.442;2023-03-16T07:16:36;7.20;99.90
25923;DHT22;13725;51.170;4.442;2023-03-16T07:19:04;7.20;99.90
25923;DHT22;13725;51.170;4.442;2023-03-16T07:21:30;7.20;99.90
25923;DHT22;13725;51.170;4.442;2023-03-16T07:24:03;7.30;99.90
25923;DHT22;13725;51.170;4.442;2023-03-16T07:26:35;7.40;99.90
25923;DHT22;13725;51.170;4.442;2023-03-16T07:29:01;7.50;99.90
25923;DHT22;13725;51.170;4.442;2023-03-16T07:31:29;7.40;99.90
25923;DHT22;13725;51.170;4.442;2023-03-16T07:33:57;7.40;99.90
25923;DHT22;13725;51.170;4.442;2023-03-16T07:36:32;7.60;99.90
25923;DHT22;13725;51.170;4.442;2023-03-16T07:39:00;7.70;99.90
25923;DHT22;13725;51.170;4.442;2023-03-16T07:41:26;7.70;99.90
25923;DHT22;13725;51.170;4.442;2023-03-16T07:43:51;7.80;99.90
25923;DHT22;13725;51.170;4.442;2023-03-16T07:46:22;7.90;99.90
25923;DHT22;13725;51.170;4.442;2023-03-16T07:48:48;8.00;99.90
25923;DHT22;13725;51.170;4.442;2023-03-16T07:51:14;8.10;99.90
25923;DHT22;13725;51.170;4.442;2023-03-16T07:53:44;8.50;99.90
25923;DHT22;13725;51.170;4.442;2023-03-16T07:56:17;8.70;99.90
25923;DHT22;13725;51.170;4.442;2023-03-16T07:58:46;9.10;99.90
25923;DHT22;13725;51.170;4.442;2023-03-16T08:01:12;9.40;99.90
25923;DHT22;13725;51.170;4.442;2023-03-16T08:03:37;10.00;99.90
25923;DHT22;13725;51.170;4.442;2023-03-16T08:06:05;11.00;99.90
25923;DHT22;13725;51.170;4.442;2023-03-16T08:08:31;12.00;99.90
25923;DHT22;13725;51.170;4.442;2023-03-16T08:10:57;12.90;99.90
25923;DHT22;13725;51.170;4.442;2023-03-16T08:13:32;13.40;99.90
25923;DHT22;13725;51.170;4.442;2023-03-16T08:15:59;13.60;99.90
25923;DHT22;13725;51.170;4.442;2023-03-16T08:18:34;12.60;99.90
25923;DHT22;13725;51.170;4.442;2023-03-16T08:21:01;11.70;99.90
25923;DHT22;13725;51.170;4.442;2023-03-16T08:23:27;11.60;99.90
25923;DHT22;13725;51.170;4.442;2023-03-16T08:25:55;11.20;99.90
25923;DHT22;13725;51.170;4.442;2023-03-16T08:28:23;10.90;99.90
25923;DHT22;13725;51.170;4.442;2023-03-16T08:30:52;10.80;99.90
25923;DHT22;13725;51.170;4.442;2023-03-16T08:33:46;11.20;99.90
25923;DHT22;13725;51.170;4.442;2023-03-16T08:36:15;11.80;99.90
25923;DHT22;13725;51.170;4.442;2023-03-16T08:38:46;12.60;99.90
25923;DHT22;13725;51.170;4.442;2023-03-16T08:41:12;13.50;99.90
25923;DHT22;13725;51.170;4.442;2023-03-16T08:43:41;14.50;99.90
25923;DHT22;13725;51.170;4.442;2023-03-16T08:46:07;15.40;99.90
25923;DHT22;13725;51.170;4.442;2023-03-16T08:48:43;16.30;99.90
25923;DHT22;13725;51.170;4.442;2023-03-16T08:51:10;17.00;99.90
25923;DHT22;13725;51.170;4.442;2023-03-16T08:53:36;17.90;99.90
25923;DHT22;13725;51.170;4.442;2023-03-16T08:56:07;17.60;99.90
25923;DHT22;13725;51.170;4.442;2023-03-16T08:58:34;18.00;99.90
25923;DHT22;13725;51.170;4.442;2023-03-16T09:01:01;18.80;99.90
25923;DHT22;13725;51.170;4.442;2023-03-16T09:03:28;18.70;99.90
25923;DHT22;13725;51.170;4.442;2023-03-16T09:06:03;18.70;98.50
25923;DHT22;13725;51.170;4.442;2023-03-16T09:08:29;18.50;98.50
25923;DHT22;13725;51.170;4.442;2023-03-16T09:11:03;17.80;98.30
25923;DHT22;13725;51.170;4.442;2023-03-16T09:13:30;17.60;99.90
25923;DHT22;13725;51.170;4.442;2023-03-16T09:15:56;17.20;99.90
25923;DHT22;13725;51.170;4.442;2023-03-16T09:18:23;16.30;99.70
25923;DHT22;13725;51.170;4.442;2023-03-16T09:20:51;15.20;99.90
25923;DHT22;13725;51.170;4.442;2023-03-16T09:23:17;14.80;99.90
25923;DHT22;13725;51.170;4.442;2023-03-16T09:25:44;14.60;99.90
25923;DHT22;13725;51.170;4.442;2023-03-16T09:28:11;14.00;99.90
25923;DHT22;13725;51.170;4.442;2023-03-16T09:30:36;13.80;99.90
25923;DHT22;13725;51.170;4.442;2023-03-16T09:33:03;13.70;99.90
25923;DHT22;13725;51.170;4.442;2023-03-16T09:35:29;13.60;99.90
25923;DHT22;13725;51.170;4.442;2023-03-16T09:37:55;13.70;99.90
25923;DHT22;13725;51.170;4.442;2023-03-16T09:40:24;13.80;99.90
25923;DHT22;13725;51.170;4.442;2023-03-16T09:46:14;13.60;99.90
25923;DHT22;13725;51.170;4.442;2023-03-16T09:48:42;13.90;99.90
25923;DHT22;13725;51.170;4.442;2023-03-16T09:51:22;13.80;99.90
25923;DHT22;13725;51.170;4.442;2023-03-16T09:53:57;13.60;99.90
25923;DHT22;13725;51.170;4.442;2023-03-16T09:56:32;14.00;99.90
25923;DHT22;13725;51.170;4.442;2023-03-16T09:59:04;14.50;99.90
25923;DHT22;13725;51.170;4.442;2023-03-16T10:05:11;17.30;99.20
25923;DHT22;13725;51.170;4.442;2023-03-16T10:12:42;19.50;92.90
25923;DHT22;13725;51.170;4.442;2023-03-16T10:15:19;18.90;91.10
25923;DHT22;13725;51.170;4.442;2023-03-16T10:20:23;20.10;87.60
25923;DHT22;13725;51.170;4.442;2023-03-16T10:22:52;21.40;83.90
25923;DHT22;13725;51.170;4.442;2023-03-16T10:25:31;22.40;81.00
25923;DHT22;13725;51.170;4.442;2023-03-16T10:28:00;21.90;78.30
25923;DHT22;13725;51.170;4.442;2023-03-16T10:30:28;22.20;76.70
25923;DHT22;13725;51.170;4.442;2023-03-16T10:33:04;22.10;76.70
25923;DHT22;13725;51.170;4.442;2023-03-16T10:40:52;21.80;72.80
25923;DHT22;13725;51.170;4.442;2023-03-16T10:43:18;21.80;73.50
25923;DHT22;13725;51.170;4.442;2023-03-16T10:45:44;21.70;75.00
25923;DHT22;13725;51.170;4.442;2023-03-16T10:48:15;22.00;74.50
25923;DHT22;13725;51.170;4.442;2023-03-16T10:50:42;21.50;73.20
25923;DHT22;13725;51.170;4.442;2023-03-16T10:53:27;20.90;75.10
25923;DHT22;13725;51.170;4.442;2023-03-16T10:55:58;20.40;74.50
25923;DHT22;13725;51.170;4.442;2023-03-16T10:58:28;19.60;76.50
25923;DHT22;13725;51.170;4.442;2023-03-16T11:00:54;19.90;76.90
25923;DHT22;13725;51.170;4.442;2023-03-16T11:03:29;20.10;76.40
25923;DHT22;13725;51.170;4.442;2023-03-16T11:06:14;19.20;77.20
25923;DHT22;13725;51.170;4.442;2023-03-16T11:08:42;18.90;77.60
25923;DHT22;13725;51.170;4.442;2023-03-16T11:11:30;19.10;76.60
25923;DHT22;13725;51.170;4.442;2023-03-16T11:14:00;19.00;77.20
25923;DHT22;13725;51.170;4.442;2023-03-16T11:16:36;18.30;77.70
25923;DHT22;13725;51.170;4.442;2023-03-16T11:21:52;19.30;79.50
25923;DHT22;13725;51.170;4.442;2023-03-16T11:27:02;20.30;75.90
25923;DHT22;13725;51.170;4.442;2023-03-16T11:29:45;20.50;74.10
25923;DHT22;13725;51.170;4.442;2023-03-16T11:32:20;21.60;73.20
25923;DHT22;13725;51.170;4.442;2023-03-16T11:34:47;22.10;72.30
25923;DHT22;13725;51.170;4.442;2023-03-16T11:37:41;21.30;72.40
25923;DHT22;13725;51.170;4.442;2023-03-16T11:48:39;21.20;72.00
25923;DHT22;13725;51.170;4.442;2023-03-16T11:54:10;21.00;71.60
25923;DHT22;13725;51.170;4.442;2023-03-16T11:56:52;21.00;70.70
25923;DHT22;13725;51.170;4.442;2023-03-16T12:01:59;22.00;70.50
25923;DHT22;13725;51.170;4.442;2023-03-16T12:04:55;22.20;69.90
25923;DHT22;13725;51.170;4.442;2023-03-16T12:13:31;23.60;66.70
25923;DHT22;13725;51.170;4.442;2023-03-16T12:16:52;23.50;66.20
25923;DHT22;13725;51.170;4.442;2023-03-16T12:19:01;24.20;65.30
25923;DHT22;13725;51.170;4.442;2023-03-16T12:21:35;24.20;63.70
25923;DHT22;13725;51.170;4.442;2023-03-16T12:24:03;24.70;62.10
25923;DHT22;13725;51.170;4.442;2023-03-16T12:26:35;25.10;61.80
25923;DHT22;13725;51.170;4.442;2023-03-16T12:32:44;23.40;63.00
25923;DHT22;13725;51.170;4.442;2023-03-16T12:35:45;23.20;63.20
25923;DHT22;13725;51.170;4.442;2023-03-16T12:41:26;22.90;63.80
25923;DHT22;13725;51.170;4.442;2023-03-16T12:44:11;22.40;64.00
25923;DHT22;13725;51.170;4.442;2023-03-16T12:49:21;22.50;62.60
25923;DHT22;13725;51.170;4.442;2023-03-16T12:51:58;22.10;64.40
25923;DHT22;13725;51.170;4.442;2023-03-16T12:54:25;22.20;64.00
25923;DHT22;13725;51.170;4.442;2023-03-16T12:56:52;21.70;65.10
25923;DHT22;13725;51.170;4.442;2023-03-16T12:59:24;22.00;64.60
25923;DHT22;13725;51.170;4.442;2023-03-16T13:02:00;22.20;66.80
25923;DHT22;13725;51.170;4.442;2023-03-16T13:04:38;22.90;64.90
25923;DHT22;13725;51.170;4.442;2023-03-16T13:07:21;23.10;63.40
25923;DHT22;13725;51.170;4.442;2023-03-16T13:09:57;22.40;63.40
25923;DHT22;13725;51.170;4.442;2023-03-16T13:12:31;22.30;64.60
25923;DHT22;13725;51.170;4.442;2023-03-16T13:15:47;21.70;63.70
25923;DHT22;13725;51.170;4.442;2023-03-16T13:20:56;21.00;64.80
25923;DHT22;13725;51.170;4.442;2023-03-16T13:23:25;21.40;65.60
25923;DHT22;13725;51.170;4.442;2023-03-16T13:29:18;22.40;63.90
25923;DHT22;13725;51.170;4.442;2023-03-16T13:31:45;22.00;63.80
25923;DHT22;13725;51.170;4.442;2023-03-16T13:34:30;22.20;64.90
25923;DHT22;13725;51.170;4.442;2023-03-16T13:36:58;22.20;64.10
25923;DHT22;13725;51.170;4.442;2023-03-16T13:39:27;21.90;64.60
25923;DHT22;13725;51.170;4.442;2023-03-16T13:44:27;21.90;64.90
25923;DHT22;13725;51.170;4.442;2023-03-16T13:46:52;22.00;63.50
25923;DHT22;13725;51.170;4.442;2023-03-16T13:49:19;22.50;62.90
25923;DHT22;13725;51.170;4.442;2023-03-16T13:51:46;22.10;62.70
25923;DHT22;13725;51.170;4.442;2023-03-16T13:54:28;22.30;63.30
25923;DHT22;13725;51.170;4.442;2023-03-16T13:56:57;21.70;63.70
25923;DHT22;13725;51.170;4.442;2023-03-16T13:59:24;21.50;63.50
25923;DHT22;13725;51.170;4.442;2023-03-16T14:01:58;21.50;65.20
25923;DHT22;13725;51.170;4.442;2023-03-16T14:04:31;21.80;64.70
25923;DHT22;13725;51.170;4.442;2023-03-16T14:06:59;21.60;64.20
25923;DHT22;13725;51.170;4.442;2023-03-16T14:09:30;21.10;64.60
25923;DHT22;13725;51.170;4.442;2023-03-16T14:11:58;21.00;66.80
25923;DHT22;13725;51.170;4.442;2023-03-16T14:14:29;20.30;65.20
25923;DHT22;13725;51.170;4.442;2023-03-16T14:17:21;19.80;66.60
25923;DHT22;13725;51.170;4.442;2023-03-16T14:19:49;20.00;67.50
25923;DHT22;13725;51.170;4.442;2023-03-16T14:22:22;20.10;65.90
25923;DHT22;13725;51.170;4.442;2023-03-16T14:24:53;20.20;67.00
25923;DHT22;13725;51.170;4.442;2023-03-16T14:27:26;19.80;66.70
25923;DHT22;13725;51.170;4.442;2023-03-16T14:29:58;19.80;67.00
25923;DHT22;13725;51.170;4.442;2023-03-16T14:32:29;19.50;67.20
25923;DHT22;13725;51.170;4.442;2023-03-16T14:35:16;19.40;67.70
25923;DHT22;13725;51.170;4.442;2023-03-16T14:37:44;19.20;67.60
25923;DHT22;13725;51.170;4.442;2023-03-16T14:40:24;18.80;68.00
25923;DHT22;13725;51.170;4.442;2023-03-16T14:42:52;18.80;69.90
25923;DHT22;13725;51.170;4.442;2023-03-16T14:45:20;18.90;69.30
25923;DHT22;13725;51.170;4.442;2023-03-16T14:47:47;18.90;69.70
25923;DHT22;13725;51.170;4.442;2023-03-16T14:50:24;18.60;69.40
25923;DHT22;13725;51.170;4.442;2023-03-16T14:52:51;18.30;70.60
25923;DHT22;13725;51.170;4.442;2023-03-16T14:55:19;18.10;69.60
25923;DHT22;13725;51.170;4.442;2023-03-16T14:57:46;17.90;70.50
25923;DHT22;13725;51.170;4.442;2023-03-16T15:00:16;17.80;70.60
25923;DHT22;13725;51.170;4.442;2023-03-16T15:02:44;17.70;71.50
25923;DHT22;13725;51.170;4.442;2023-03-16T15:05:19;17.70;71.00
25923;DHT22;13725;51.170;4.442;2023-03-16T15:07:47;17.70;71.90
25923;DHT22;13725;51.170;4.442;2023-03-16T15:12:41;17.70;73.80
25923;DHT22;13725;51.170;4.442;2023-03-16T15:15:17;17.80;73.20
25923;DHT22;13725;51.170;4.442;2023-03-16T15:17:44;17.90;72.20
25923;DHT22;13725;51.170;4.442;2023-03-16T15:20:21;17.70;72.80
25923;DHT22;13725;51.170;4.442;2023-03-16T15:22:50;17.50;74.20
25923;DHT22;13725;51.170;4.442;2023-03-16T15:25:37;17.40;74.50
25923;DHT22;13725;51.170;4.442;2023-03-16T15:28:14;17.40;74.80
25923;DHT22;13725;51.170;4.442;2023-03-16T15:30:45;17.40;75.50
25923;DHT22;13725;51.170;4.442;2023-03-16T15:33:12;17.30;76.80
25923;DHT22;13725;51.170;4.442;2023-03-16T15:35:39;17.30;74.30
25923;DHT22;13725;51.170;4.442;2023-03-16T15:38:17;17.10;74.10
25923;DHT22;13725;51.170;4.442;2023-03-16T15:40:45;17.10;75.10
25923;DHT22;13725;51.170;4.442;2023-03-16T15:43:17;17.00;73.80
25923;DHT22;13725;51.170;4.442;2023-03-16T15:45:43;16.90;74.70
25923;DHT22;13725;51.170;4.442;2023-03-16T15:48:10;16.80;75.40
25923;DHT22;13725;51.170;4.442;2023-03-16T15:50:38;16.70;76.20
25923;DHT22;13725;51.170;4.442;2023-03-16T15:53:22;16.50;74.70
25923;DHT22;13725;51.170;4.442;2023-03-16T15:55:51;16.40;75.00
25923;DHT22;13725;51.170;4.442;2023-03-16T15:58:23;16.40;76.70
25923;DHT22;13725;51.170;4.442;2023-03-16T16:00:53;16.40;76.80
25923;DHT22;13725;51.170;4.442;2023-03-16T16:03:22;16.30;78.70
25923;DHT22;13725;51.170;4.442;2023-03-16T16:05:49;16.40;78.20
25923;DHT22;13725;51.170;4.442;2023-03-16T16:08:15;16.40;79.10
25923;DHT22;13725;51.170;4.442;2023-03-16T16:10:42;16.40;77.60
25923;DHT22;13725;51.170;4.442;2023-03-16T16:13:27;16.20;78.90
25923;DHT22;13725;51.170;4.442;2023-03-16T16:15:57;16.20;80.30
25923;DHT22;13725;51.170;4.442;2023-03-16T16:18:30;16.20;77.10
25923;DHT22;13725;51.170;4.442;2023-03-16T16:21:00;16.20;77.80
25923;DHT22;13725;51.170;4.442;2023-03-16T16:23:28;16.10;76.80
25923;DHT22;13725;51.170;4.442;2023-03-16T16:25:57;16.10;78.90
25923;DHT22;13725;51.170;4.442;2023-03-16T16:28:27;16.00;79.20
25923;DHT22;13725;51.170;4.442;2023-03-16T16:30:54;15.90;78.80
25923;DHT22;13725;51.170;4.442;2023-03-16T16:33:25;15.90;79.30
25923;DHT22;13725;51.170;4.442;2023-03-16T16:35:59;15.80;79.20
25923;DHT22;13725;51.170;4.442;2023-03-16T16:38:26;15.70;79.20
25923;DHT22;13725;51.170;4.442;2023-03-16T16:40:53;15.70;79.20
25923;DHT22;13725;51.170;4.442;2023-03-16T16:43:40;15.60;79.90
25923;DHT22;13725;51.170;4.442;2023-03-16T16:46:15;15.60;81.00
25923;DHT22;13725;51.170;4.442;2023-03-16T16:48:45;15.60;80.30
25923;DHT22;13725;51.170;4.442;2023-03-16T16:51:19;15.60;80.10
25923;DHT22;13725;51.170;4.442;2023-03-16T16:53:46;15.50;80.00
25923;DHT22;13725;51.170;4.442;2023-03-16T16:56:13;15.40;81.00
25923;DHT22;13725;51.170;4.442;2023-03-16T16:58:41;15.30;81.20
25923;DHT22;13725;51.170;4.442;2023-03-16T17:01:13;15.30;81.40
25923;DHT22;13725;51.170;4.442;2023-03-16T17:03:40;15.30;82.90
25923;DHT22;13725;51.170;4.442;2023-03-16T17:06:16;15.20;82.50
25923;DHT22;13725;51.170;4.442;2023-03-16T17:08:43;15.10;83.20
25923;DHT22;13725;51.170;4.442;2023-03-16T17:11:24;15.00;83.90